Granger, Iowa
Current Conditions -  °F | °C
As of 5:35 PM on Wednesday 22 Oct 2014 (Local Time) from KIKV Reporting Station
Broken Clouds Broken Clouds  
Wind Chill: 63°   Ceiling: 6000
Heat Index: 63°   Visibility: 10mi
Dew Point: 46°   Wind: 10mph
Humidity: 55%   Direction: 140°SE
Pressure: 30.1"   Gusts: NA
Location:  41.76°N, 93.82°W
Report Text: KIKV 222235Z AUTO 14009KT 10SM BKN060 BKN065 BKN085 17/08 A3010 RMK AO2
Loading
Personal Weather Stations






























Interactive Weather Map New forecast layout! Learn more

10-Day Weather Forecast

Advertisements
Track Severe Weather on mobile